sensor_id;sensor_type;location;lat;lon;timestamp;temperature;humidity
19263;DHT22;9765;52.354;20.884;2022-10-03T05:59:54;10.50;99.90
19263;DHT22;9765;52.354;20.884;2022-10-03T06:02:51;10.50;99.90
19263;DHT22;9765;52.354;20.884;2022-10-03T06:05:28;10.60;99.90
19263;DHT22;9765;52.354;20.884;2022-10-03T06:08:13;10.70;99.90
19263;DHT22;9765;52.354;20.884;2022-10-03T06:10:48;10.80;99.90
19263;DHT22;9765;52.354;20.884;2022-10-03T06:13:24;10.90;99.90
19263;DHT22;9765;52.354;20.884;2022-10-03T06:16:07;11.00;99.90
19263;DHT22;9765;52.354;20.884;2022-10-03T06:19:04;10.90;99.90
19263;DHT22;9765;52.354;20.884;2022-10-03T06:21:59;11.00;99.90
19263;DHT22;9765;52.354;20.884;2022-10-03T06:25:12;11.00;99.90
19263;DHT22;9765;52.354;20.884;2022-10-03T06:53:58;10.90;99.90
19263;DHT22;9765;52.354;20.884;2022-10-03T06:56:44;10.90;99.90
19263;DHT22;9765;52.354;20.884;2022-10-03T06:59:46;11.00;99.90
19263;DHT22;9765;52.354;20.884;2022-10-03T07:08:36;11.20;99.90
19263;DHT22;9765;52.354;20.884;2022-10-03T07:11:28;11.20;99.90
19263;DHT22;9765;52.354;20.884;2022-10-03T07:14:14;11.30;99.90
19263;DHT22;9765;52.354;20.884;2022-10-03T07:16:57;11.30;99.90
19263;DHT22;9765;52.354;20.884;2022-10-03T07:22:58;11.40;99.90
19263;DHT22;9765;52.354;20.884;2022-10-03T07:31:46;11.60;99.90
19263;DHT22;9765;52.354;20.884;2022-10-03T07:37:36;11.80;99.90
19263;DHT22;9765;52.354;20.884;2022-10-03T07:40:41;11.90;99.90
19263;DHT22;9765;52.354;20.884;2022-10-03T07:43:41;12.00;99.90
19263;DHT22;9765;52.354;20.884;2022-10-03T07:49:47;12.00;99.90
19263;DHT22;9765;52.354;20.884;2022-10-03T07:52:33;12.00;99.90
19263;DHT22;9765;52.354;20.884;2022-10-03T07:55:27;12.10;99.90
19263;DHT22;9765;52.354;20.884;2022-10-03T07:58:20;12.10;99.90
19263;DHT22;9765;52.354;20.884;2022-10-03T08:01:05;12.10;99.90
19263;DHT22;9765;52.354;20.884;2022-10-03T08:06:44;12.10;99.90
19263;DHT22;9765;52.354;20.884;2022-10-03T08:09:40;12.20;99.90
19263;DHT22;9765;52.354;20.884;2022-10-03T08:12:40;12.20;99.90
19263;DHT22;9765;52.354;20.884;2022-10-03T08:15:22;12.20;99.90
19263;DHT22;9765;52.354;20.884;2022-10-03T08:18:26;12.20;99.90
19263;DHT22;9765;52.354;20.884;2022-10-03T08:20:57;12.30;99.90
19263;DHT22;9765;52.354;20.884;2022-10-03T08:24:04;12.30;99.90
19263;DHT22;9765;52.354;20.884;2022-10-03T08:26:49;12.40;99.90
19263;DHT22;9765;52.354;20.884;2022-10-03T08:29:36;12.40;99.90
19263;DHT22;9765;52.354;20.884;2022-10-03T08:32:41;12.40;99.90
19263;DHT22;9765;52.354;20.884;2022-10-03T08:35:27;12.40;99.90
19263;DHT22;9765;52.354;20.884;2022-10-03T08:38:30;12.40;99.90
19263;DHT22;9765;52.354;20.884;2022-10-03T08:44:30;12.40;99.90
19263;DHT22;9765;52.354;20.884;2022-10-03T08:47:14;12.40;99.90
19263;DHT22;9765;52.354;20.884;2022-10-03T08:53:01;12.40;99.90
19263;DHT22;9765;52.354;20.884;2022-10-03T08:55:51;12.40;99.90
19263;DHT22;9765;52.354;20.884;2022-10-03T09:01:33;12.50;99.90
19263;DHT22;9765;52.354;20.884;2022-10-03T09:07:29;12.60;99.90
19263;DHT22;9765;52.354;20.884;2022-10-03T09:10:26;12.60;99.90
19263;DHT22;9765;52.354;20.884;2022-10-03T09:13:16;12.60;99.90
19263;DHT22;9765;52.354;20.884;2022-10-03T09:19:06;12.50;99.90
19263;DHT22;9765;52.354;20.884;2022-10-03T09:22:09;12.40;99.90
19263;DHT22;9765;52.354;20.884;2022-10-03T09:25:01;12.40;99.90
19263;DHT22;9765;52.354;20.884;2022-10-03T09:27:45;12.30;99.90
19263;DHT22;9765;52.354;20.884;2022-10-03T09:30:22;12.30;99.90
19263;DHT22;9765;52.354;20.884;2022-10-03T09:39:31;12.40;99.90
19263;DHT22;9765;52.354;20.884;2022-10-03T09:45:14;12.50;99.90
19263;DHT22;9765;52.354;20.884;2022-10-03T09:48:15;12.50;99.90
19263;DHT22;9765;52.354;20.884;2022-10-03T09:57:17;12.60;99.90
19263;DHT22;9765;52.354;20.884;2022-10-03T09:59:59;12.70;99.90
19263;DHT22;9765;52.354;20.884;2022-10-03T10:02:53;12.70;99.90
19263;DHT22;9765;52.354;20.884;2022-10-03T10:08:41;12.70;99.90
19263;DHT22;9765;52.354;20.884;2022-10-03T10:11:24;13.50;99.90
19263;DHT22;9765;52.354;20.884;2022-10-03T10:14:31;12.70;99.90
19263;DHT22;9765;52.354;20.884;2022-10-03T10:17:35;12.70;99.90
19263;DHT22;9765;52.354;20.884;2022-10-03T10:20:22;12.60;99.90
19263;DHT22;9765;52.354;20.884;2022-10-03T10:23:16;12.50;99.90
19263;DHT22;9765;52.354;20.884;2022-10-03T10:29:08;12.50;99.90
19263;DHT22;9765;52.354;20.884;2022-10-03T10:38:20;12.30;99.90
19263;DHT22;9765;52.354;20.884;2022-10-03T10:41:13;12.30;99.90
19263;DHT22;9765;52.354;20.884;2022-10-03T10:56:26;12.50;99.90
19263;DHT22;9765;52.354;20.884;2022-10-03T10:59:39;12.50;99.90
19263;DHT22;9765;52.354;20.884;2022-10-03T11:05:40;12.70;99.90
19263;DHT22;9765;52.354;20.884;2022-10-03T11:08:35;12.90;99.90
19263;DHT22;9765;52.354;20.884;2022-10-03T11:17:42;13.40;99.90
19263;DHT22;9765;52.354;20.884;2022-10-03T11:23:43;13.40;99.90
19263;DHT22;9765;52.354;20.884;2022-10-03T11:27:14;13.40;99.90
19263;DHT22;9765;52.354;20.884;2022-10-03T11:30:17;13.60;99.90
19263;DHT22;9765;52.354;20.884;2022-10-03T11:36:17;14.00;99.90
19263;DHT22;9765;52.354;20.884;2022-10-03T11:39:00;14.20;99.90
19263;DHT22;9765;52.354;20.884;2022-10-03T11:41:43;14.30;99.90
19263;DHT22;9765;52.354;20.884;2022-10-03T11:44:28;14.40;99.90
19263;DHT22;9765;52.354;20.884;2022-10-03T11:47:15;15.00;99.90
19263;DHT22;9765;52.354;20.884;2022-10-03T11:50:19;14.70;99.90
19263;DHT22;9765;52.354;20.884;2022-10-03T11:53:03;14.70;99.90
19263;DHT22;9765;52.354;20.884;2022-10-03T11:55:36;14.60;99.90
19263;DHT22;9765;52.354;20.884;2022-10-03T11:58:26;14.60;99.90
19263;DHT22;9765;52.354;20.884;2022-10-03T12:03:49;14.60;99.90
19263;DHT22;9765;52.354;20.884;2022-10-03T12:06:36;14.70;99.90
19263;DHT22;9765;52.354;20.884;2022-10-03T12:09:32;14.80;99.90
19263;DHT22;9765;52.354;20.884;2022-10-03T12:12:07;14.90;99.90
19263;DHT22;9765;52.354;20.884;2022-10-03T12:14:41;14.90;99.90
19263;DHT22;9765;52.354;20.884;2022-10-03T12:17:12;15.10;99.90
19263;DHT22;9765;52.354;20.884;2022-10-03T12:19:49;15.20;99.90
19263;DHT22;9765;52.354;20.884;2022-10-03T12:22:32;15.30;99.90
19263;DHT22;9765;52.354;20.884;2022-10-03T12:25:15;15.40;99.90
19263;DHT22;9765;52.354;20.884;2022-10-03T12:27:51;15.50;99.90
19263;DHT22;9765;52.354;20.884;2022-10-03T12:30:20;15.60;99.90
19263;DHT22;9765;52.354;20.884;2022-10-03T12:32:58;15.60;99.90
19263;DHT22;9765;52.354;20.884;2022-10-03T12:35:37;15.60;99.90
19263;DHT22;9765;52.354;20.884;2022-10-03T12:38:20;15.30;99.90
19263;DHT22;9765;52.354;20.884;2022-10-03T12:40:59;15.10;99.90
19263;DHT22;9765;52.354;20.884;2022-10-03T12:43:45;14.80;99.90
19263;DHT22;9765;52.354;20.884;2022-10-03T12:46:20;14.70;99.90
19263;DHT22;9765;52.354;20.884;2022-10-03T12:48:54;14.80;99.90
19263;DHT22;9765;52.354;20.884;2022-10-03T12:51:38;14.80;99.90
19263;DHT22;9765;52.354;20.884;2022-10-03T12:54:20;14.90;99.90
19263;DHT22;9765;52.354;20.884;2022-10-03T12:57:06;14.90;99.90
19263;DHT22;9765;52.354;20.884;2022-10-03T12:59:37;15.00;99.90
19263;DHT22;9765;52.354;20.884;2022-10-03T13:02:27;15.20;99.90
19263;DHT22;9765;52.354;20.884;2022-10-03T13:05:17;15.00;99.90
19263;DHT22;9765;52.354;20.884;2022-10-03T13:07:51;14.90;99.90
19263;DHT22;9765;52.354;20.884;2022-10-03T13:10:28;14.80;99.90
19263;DHT22;9765;52.354;20.884;2022-10-03T13:13:09;14.70;99.90
19263;DHT22;9765;52.354;20.884;2022-10-03T13:15:50;14.60;99.90
19263;DHT22;9765;52.354;20.884;2022-10-03T13:18:31;14.50;99.90
19263;DHT22;9765;52.354;20.884;2022-10-03T13:21:05;14.40;99.90
19263;DHT22;9765;52.354;20.884;2022-10-03T13:23:41;14.20;99.90
19263;DHT22;9765;52.354;20.884;2022-10-03T13:26:17;14.10;99.90
19263;DHT22;9765;52.354;20.884;2022-10-03T13:29:10;14.10;99.90
19263;DHT22;9765;52.354;20.884;2022-10-03T13:31:49;14.10;99.90
19263;DHT22;9765;52.354;20.884;2022-10-03T13:34:23;14.20;99.90
19263;DHT22;9765;52.354;20.884;2022-10-03T13:36:55;14.10;99.90
19263;DHT22;9765;52.354;20.884;2022-10-03T13:39:25;13.90;99.90
19263;DHT22;9765;52.354;20.884;2022-10-03T13:42:01;13.90;99.90
19263;DHT22;9765;52.354;20.884;2022-10-03T13:44:39;14.00;99.90
19263;DHT22;9765;52.354;20.884;2022-10-03T13:47:27;13.90;99.90
19263;DHT22;9765;52.354;20.884;2022-10-03T13:49:59;14.00;99.90
19263;DHT22;9765;52.354;20.884;2022-10-03T13:52:35;13.90;99.90
19263;DHT22;9765;52.354;20.884;2022-10-03T13:55:23;13.90;99.90
19263;DHT22;9765;52.354;20.884;2022-10-03T13:58:19;13.90;99.90
19263;DHT22;9765;52.354;20.884;2022-10-03T14:01:04;13.90;99.90
19263;DHT22;9765;52.354;20.884;2022-10-03T14:03:42;13.90;99.90
19263;DHT22;9765;52.354;20.884;2022-10-03T14:06:17;13.80;99.90
19263;DHT22;9765;52.354;20.884;2022-10-03T14:09:15;13.80;99.90
19263;DHT22;9765;52.354;20.884;2022-10-03T14:11:50;13.70;99.90
19263;DHT22;9765;52.354;20.884;2022-10-03T14:14:41;13.70;99.90
19263;DHT22;9765;52.354;20.884;2022-10-03T14:17:15;13.70;99.90
19263;DHT22;9765;52.354;20.884;2022-10-03T14:19:55;13.70;99.90
19263;DHT22;9765;52.354;20.884;2022-10-03T14:22:39;13.60;99.90
19263;DHT22;9765;52.354;20.884;2022-10-03T14:25:19;13.60;99.90
19263;DHT22;9765;52.354;20.884;2022-10-03T14:27:53;13.50;99.90
19263;DHT22;9765;52.354;20.884;2022-10-03T14:30:24;13.50;99.90
19263;DHT22;9765;52.354;20.884;2022-10-03T14:33:01;13.50;99.90
19263;DHT22;9765;52.354;20.884;2022-10-03T14:35:38;13.50;99.90
19263;DHT22;9765;52.354;20.884;2022-10-03T14:38:26;13.40;99.90
19263;DHT22;9765;52.354;20.884;2022-10-03T14:41:18;13.40;99.90
19263;DHT22;9765;52.354;20.884;2022-10-03T14:43:51;13.30;99.90
19263;DHT22;9765;52.354;20.884;2022-10-03T14:46:19;13.20;99.90
19263;DHT22;9765;52.354;20.884;2022-10-03T14:48:51;13.20;99.90
19263;DHT22;9765;52.354;20.884;2022-10-03T14:51:21;13.30;99.90
19263;DHT22;9765;52.354;20.884;2022-10-03T14:53:51;13.20;99.90
19263;DHT22;9765;52.354;20.884;2022-10-03T14:56:20;13.10;99.90
19263;DHT22;9765;52.354;20.884;2022-10-03T14:58:51;13.10;99.90
19263;DHT22;9765;52.354;20.884;2022-10-03T15:01:22;13.10;99.90
19263;DHT22;9765;52.354;20.884;2022-10-03T15:03:57;13.10;99.90
19263;DHT22;9765;52.354;20.884;2022-10-03T15:06:33;13.00;99.90
19263;DHT22;9765;52.354;20.884;2022-10-03T15:09:03;13.00;99.90
19263;DHT22;9765;52.354;20.884;2022-10-03T15:11:33;12.90;99.90
19263;DHT22;9765;52.354;20.884;2022-10-03T15:14:01;12.90;99.90
19263;DHT22;9765;52.354;20.884;2022-10-03T15:16:33;12.90;99.90
19263;DHT22;9765;52.354;20.884;2022-10-03T15:19:08;12.80;99.90
19263;DHT22;9765;52.354;20.884;2022-10-03T15:21:41;12.80;99.90
19263;DHT22;9765;52.354;20.884;2022-10-03T15:24:12;12.70;99.90
19263;DHT22;9765;52.354;20.884;2022-10-03T15:26:47;12.70;99.90
19263;DHT22;9765;52.354;20.884;2022-10-03T15:29:17;12.60;99.90
19263;DHT22;9765;52.354;20.884;2022-10-03T15:31:46;12.60;99.90
19263;DHT22;9765;52.354;20.884;2022-10-03T15:34:18;12.50;99.90
19263;DHT22;9765;52.354;20.884;2022-10-03T15:36:48;12.50;99.90
19263;DHT22;9765;52.354;20.884;2022-10-03T15:39:19;12.50;99.90
19263;DHT22;9765;52.354;20.884;2022-10-03T15:41:51;12.40;99.90
19263;DHT22;9765;52.354;20.884;2022-10-03T15:44:21;12.50;99.90
19263;DHT22;9765;52.354;20.884;2022-10-03T15:46:56;12.40;99.90
